sensor_id;sensor_type;location;lat;lon;timestamp;pressure;altitude;pressure_sealevel;temperature;humidity
54978;BME280;40873;47.522;19.106;2023-01-28T00:01:15;100393.59;;;1.53;100.00
54978;BME280;40873;47.522;19.106;2023-01-28T00:03:42;100392.75;;;1.54;100.00
54978;BME280;40873;47.522;19.106;2023-01-28T00:06:13;100396.38;;;1.45;100.00
54978;BME280;40873;47.522;19.106;2023-01-28T00:08:41;100397.41;;;1.40;100.00
54978;BME280;40873;47.522;19.106;2023-01-28T00:11:10;100396.41;;;1.44;100.00
54978;BME280;40873;47.522;19.106;2023-01-28T00:13:38;100397.53;;;1.33;100.00
54978;BME280;40873;47.522;19.106;2023-01-28T00:16:06;100398.44;;;1.31;100.00
54978;BME280;40873;47.522;19.106;2023-01-28T00:18:37;100400.03;;;1.36;100.00
54978;BME280;40873;47.522;19.106;2023-01-28T00:21:06;100398.34;;;1.35;100.00
54978;BME280;40873;47.522;19.106;2023-01-28T00:23:35;100397.34;;;1.41;100.00
54978;BME280;40873;47.522;19.106;2023-01-28T00:26:06;100400.75;;;1.43;100.00
54978;BME280;40873;47.522;19.106;2023-01-28T00:28:33;100404.25;;;1.42;100.00
54978;BME280;40873;47.522;19.106;2023-01-28T00:31:14;100402.44;;;1.47;100.00
54978;BME280;40873;47.522;19.106;2023-01-28T00:33:44;100401.41;;;1.53;100.00
54978;BME280;40873;47.522;19.106;2023-01-28T00:36:12;100406.91;;;1.41;100.00
54978;BME280;40873;47.522;19.106;2023-01-28T00:38:40;100407.66;;;1.44;100.00
54978;BME280;40873;47.522;19.106;2023-01-28T00:41:15;100405.75;;;1.52;100.00
54978;BME280;40873;47.522;19.106;2023-01-28T00:43:43;100410.28;;;1.44;100.00
54978;BME280;40873;47.522;19.106;2023-01-28T00:46:11;100405.03;;;1.47;100.00
54978;BME280;40873;47.522;19.106;2023-01-28T00:48:40;100420.59;;;1.49;100.00
54978;BME280;40873;47.522;19.106;2023-01-28T00:51:10;100413.91;;;1.37;100.00
54978;BME280;40873;47.522;19.106;2023-01-28T00:53:37;100418.75;;;1.52;100.00
54978;BME280;40873;47.522;19.106;2023-01-28T00:56:06;100417.00;;;1.53;100.00
54978;BME280;40873;47.522;19.106;2023-01-28T00:58:33;100422.28;;;1.50;100.00
54978;BME280;40873;47.522;19.106;2023-01-28T01:03:38;100422.31;;;1.48;100.00
54978;BME280;40873;47.522;19.106;2023-01-28T01:06:06;100423.09;;;1.53;100.00
54978;BME280;40873;47.522;19.106;2023-01-28T01:08:33;100428.44;;;1.47;100.00
54978;BME280;40873;47.522;19.106;2023-01-28T01:11:01;100424.75;;;1.56;100.00
54978;BME280;40873;47.522;19.106;2023-01-28T01:13:29;100423.81;;;1.58;98.57
54978;BME280;40873;47.522;19.106;2023-01-28T01:16:15;100425.69;;;1.52;99.90
54978;BME280;40873;47.522;19.106;2023-01-28T01:18:42;100423.78;;;1.61;99.09
54978;BME280;40873;47.522;19.106;2023-01-28T01:21:15;100425.53;;;1.61;99.10
54978;BME280;40873;47.522;19.106;2023-01-28T01:23:44;100417.09;;;1.50;98.59
54978;BME280;40873;47.522;19.106;2023-01-28T01:26:11;100419.50;;;1.57;98.41
54978;BME280;40873;47.522;19.106;2023-01-28T01:28:41;100422.06;;;1.60;98.27
54978;BME280;40873;47.522;19.106;2023-01-28T01:31:14;100423.88;;;1.57;99.39
54978;BME280;40873;47.522;19.106;2023-01-28T01:33:43;100419.41;;;1.62;99.42
54978;BME280;40873;47.522;19.106;2023-01-28T01:36:11;100417.69;;;1.62;98.79
54978;BME280;40873;47.522;19.106;2023-01-28T01:38:40;100424.66;;;1.60;99.23
54978;BME280;40873;47.522;19.106;2023-01-28T01:41:08;100421.13;;;1.63;98.27
54978;BME280;40873;47.522;19.106;2023-01-28T01:43:51;100422.06;;;1.59;99.07
54978;BME280;40873;47.522;19.106;2023-01-28T01:46:41;100431.53;;;1.63;99.99
54978;BME280;40873;47.522;19.106;2023-01-28T01:51:48;100432.56;;;1.56;100.00
54978;BME280;40873;47.522;19.106;2023-01-28T01:54:17;100435.25;;;1.51;100.00
54978;BME280;40873;47.522;19.106;2023-01-28T01:56:47;100436.06;;;1.55;100.00
54978;BME280;40873;47.522;19.106;2023-01-28T01:59:20;100437.81;;;1.53;100.00
54978;BME280;40873;47.522;19.106;2023-01-28T02:01:49;100436.22;;;1.47;100.00
54978;BME280;40873;47.522;19.106;2023-01-28T02:04:28;100434.44;;;1.49;100.00
54978;BME280;40873;47.522;19.106;2023-01-28T02:06:59;100431.75;;;1.54;100.00
54978;BME280;40873;47.522;19.106;2023-01-28T02:09:29;100431.75;;;1.52;100.00
54978;BME280;40873;47.522;19.106;2023-01-28T02:12:02;100430.22;;;1.44;100.00
54978;BME280;40873;47.522;19.106;2023-01-28T02:14:33;100440.66;;;1.42;100.00
54978;BME280;40873;47.522;19.106;2023-01-28T02:17:01;100434.53;;;1.45;100.00
54978;BME280;40873;47.522;19.106;2023-01-28T02:33:44;100428.16;;;1.18;100.00
54978;BME280;40873;47.522;19.106;2023-01-28T02:36:42;100425.50;;;1.21;100.00
54978;BME280;40873;47.522;19.106;2023-01-28T02:39:34;100422.97;;;1.19;100.00
54978;BME280;40873;47.522;19.106;2023-01-28T02:42:13;100423.97;;;1.10;100.00
54978;BME280;40873;47.522;19.106;2023-01-28T02:44:41;100425.84;;;1.04;100.00
54978;BME280;40873;47.522;19.106;2023-01-28T02:47:12;100424.84;;;1.11;100.00
54978;BME280;40873;47.522;19.106;2023-01-28T02:50:04;100424.13;;;1.04;100.00
54978;BME280;40873;47.522;19.106;2023-01-28T02:58:41;100412.97;;;0.99;100.00
54978;BME280;40873;47.522;19.106;2023-01-28T03:01:35;100423.13;;;1.10;100.00
54978;BME280;40873;47.522;19.106;2023-01-28T03:06:43;100413.88;;;0.97;100.00
54978;BME280;40873;47.522;19.106;2023-01-28T03:09:13;100418.19;;;0.98;100.00
54978;BME280;40873;47.522;19.106;2023-01-28T03:12:06;100412.38;;;0.85;100.00
54978;BME280;40873;47.522;19.106;2023-01-28T03:17:53;100425.25;;;0.91;100.00
54978;BME280;40873;47.522;19.106;2023-01-28T03:23:47;100418.16;;;0.99;100.00
54978;BME280;40873;47.522;19.106;2023-01-28T03:26:43;100413.88;;;0.97;100.00
54978;BME280;40873;47.522;19.106;2023-01-28T03:29:32;100418.31;;;0.90;100.00
54978;BME280;40873;47.522;19.106;2023-01-28T03:32:18;100415.84;;;0.86;100.00
54978;BME280;40873;47.522;19.106;2023-01-28T03:35:05;100420.03;;;0.93;100.00
54978;BME280;40873;47.522;19.106;2023-01-28T03:37:53;100413.19;;;0.87;100.00
54978;BME280;40873;47.522;19.106;2023-01-28T03:40:19;100424.25;;;0.97;100.00
54978;BME280;40873;47.522;19.106;2023-01-28T03:42:47;100426.19;;;0.87;100.00
54978;BME280;40873;47.522;19.106;2023-01-28T03:45:13;100427.97;;;0.85;100.00
54978;BME280;40873;47.522;19.106;2023-01-28T03:47:41;100438.41;;;0.84;100.00
54978;BME280;40873;47.522;19.106;2023-01-28T03:50:09;100436.72;;;0.79;100.00
54978;BME280;40873;47.522;19.106;2023-01-28T03:52:37;100432.34;;;0.81;100.00
54978;BME280;40873;47.522;19.106;2023-01-28T03:55:04;100436.56;;;0.87;100.00
54978;BME280;40873;47.522;19.106;2023-01-28T03:57:40;100430.50;;;0.88;100.00
54978;BME280;40873;47.522;19.106;2023-01-28T04:00:07;100430.72;;;0.77;100.00
54978;BME280;40873;47.522;19.106;2023-01-28T04:02:36;100435.81;;;0.82;100.00
54978;BME280;40873;47.522;19.106;2023-01-28T04:05:07;100431.53;;;0.79;100.00
54978;BME280;40873;47.522;19.106;2023-01-28T04:07:38;100428.81;;;0.86;100.00
54978;BME280;40873;47.522;19.106;2023-01-28T04:10:06;100425.38;;;0.85;100.00
54978;BME280;40873;47.522;19.106;2023-01-28T04:12:34;100434.88;;;0.86;100.00
54978;BME280;40873;47.522;19.106;2023-01-28T04:15:04;100431.31;;;0.92;100.00
54978;BME280;40873;47.522;19.106;2023-01-28T04:17:46;100446.03;;;0.91;100.00
54978;BME280;40873;47.522;19.106;2023-01-28T04:20:13;100431.28;;;0.93;100.00
54978;BME280;40873;47.522;19.106;2023-01-28T04:22:40;100436.34;;;0.99;100.00
54978;BME280;40873;47.522;19.106;2023-01-28T04:25:08;100433.69;;;1.02;100.00
54978;BME280;40873;47.522;19.106;2023-01-28T04:27:35;100440.56;;;1.05;100.00
54978;BME280;40873;47.522;19.106;2023-01-28T04:30:02;100442.28;;;1.06;100.00
54978;BME280;40873;47.522;19.106;2023-01-28T04:32:29;100439.88;;;0.95;100.00
54978;BME280;40873;47.522;19.106;2023-01-28T04:34:56;100446.13;;;0.87;100.00
54978;BME280;40873;47.522;19.106;2023-01-28T04:37:23;100446.16;;;0.85;100.00
54978;BME280;40873;47.522;19.106;2023-01-28T04:39:50;100447.78;;;0.89;100.00
54978;BME280;40873;47.522;19.106;2023-01-28T04:42:16;100440.81;;;0.93;100.00
54978;BME280;40873;47.522;19.106;2023-01-28T04:44:44;100450.22;;;0.98;100.00
54978;BME280;40873;47.522;19.106;2023-01-28T04:47:10;100442.41;;;1.00;100.00
54978;BME280;40873;47.522;19.106;2023-01-28T04:49:37;100453.56;;;1.05;100.00
54978;BME280;40873;47.522;19.106;2023-01-28T04:52:05;100455.50;;;0.94;100.00
54978;BME280;40873;47.522;19.106;2023-01-28T04:54:33;100458.13;;;0.92;100.00
54978;BME280;40873;47.522;19.106;2023-01-28T04:56:59;100463.25;;;0.95;100.00
54978;BME280;40873;47.522;19.106;2023-01-28T04:59:26;100462.59;;;0.86;100.00
54978;BME280;40873;47.522;19.106;2023-01-28T05:01:53;100467.56;;;0.96;100.00
54978;BME280;40873;47.522;19.106;2023-01-28T05:04:20;100461.50;;;0.96;100.00
54978;BME280;40873;47.522;19.106;2023-01-28T05:06:47;100455.47;;;0.95;100.00
54978;BME280;40873;47.522;19.106;2023-01-28T05:09:14;100458.22;;;0.88;100.00
54978;BME280;40873;47.522;19.106;2023-01-28T05:11:41;100465.22;;;0.84;100.00
54978;BME280;40873;47.522;19.106;2023-01-28T05:14:08;100461.69;;;0.87;100.00
54978;BME280;40873;47.522;19.106;2023-01-28T05:16:35;100474.66;;;0.88;100.00
54978;BME280;40873;47.522;19.106;2023-01-28T05:19:02;100472.72;;;0.99;100.00
54978;BME280;40873;47.522;19.106;2023-01-28T05:21:29;100482.34;;;0.94;100.00
54978;BME280;40873;47.522;19.106;2023-01-28T05:23:56;100481.41;;;0.97;100.00
54978;BME280;40873;47.522;19.106;2023-01-28T05:26:23;100476.16;;;1.00;100.00
54978;BME280;40873;47.522;19.106;2023-01-28T05:28:50;100477.91;;;0.99;100.00
54978;BME280;40873;47.522;19.106;2023-01-28T05:31:17;100488.44;;;0.92;100.00
54978;BME280;40873;47.522;19.106;2023-01-28T05:33:44;100475.50;;;0.89;100.00
54978;BME280;40873;47.522;19.106;2023-01-28T05:36:11;100490.78;;;1.04;100.00
54978;BME280;40873;47.522;19.106;2023-01-28T05:38:38;100481.47;;;0.94;100.00
54978;BME280;40873;47.522;19.106;2023-01-28T05:41:05;100487.72;;;0.85;100.00
54978;BME280;40873;47.522;19.106;2023-01-28T05:43:32;100490.44;;;0.77;100.00
54978;BME280;40873;47.522;19.106;2023-01-28T05:45:59;100486.91;;;0.81;100.00
54978;BME280;40873;47.522;19.106;2023-01-28T05:48:26;100492.88;;;0.87;100.00
54978;BME280;40873;47.522;19.106;2023-01-28T05:50:53;100486.09;;;0.76;100.00
54978;BME280;40873;47.522;19.106;2023-01-28T05:53:20;100492.81;;;0.90;100.00
54978;BME280;40873;47.522;19.106;2023-01-28T05:55:51;100487.88;;;0.74;100.00
54978;BME280;40873;47.522;19.106;2023-01-28T05:58:19;100491.25;;;0.79;100.00
54978;BME280;40873;47.522;19.106;2023-01-28T06:00:46;100492.97;;;0.80;100.00
54978;BME280;40873;47.522;19.106;2023-01-28T06:03:13;100497.38;;;0.77;100.00
54978;BME280;40873;47.522;19.106;2023-01-28T06:05:40;100500.72;;;0.82;100.00
54978;BME280;40873;47.522;19.106;2023-01-28T06:08:07;100509.44;;;0.79;100.00
54978;BME280;40873;47.522;19.106;2023-01-28T06:10:34;100507.91;;;0.68;100.00
54978;BME280;40873;47.522;19.106;2023-01-28T06:13:01;100514.13;;;0.59;100.00
54978;BME280;40873;47.522;19.106;2023-01-28T06:15:28;100512.59;;;0.49;100.00
54978;BME280;40873;47.522;19.106;2023-01-28T06:17:55;100515.13;;;0.52;100.00
54978;BME280;40873;47.522;19.106;2023-01-28T06:20:22;100520.31;;;0.52;100.00
54978;BME280;40873;47.522;19.106;2023-01-28T06:22:52;100521.84;;;0.62;100.00
54978;BME280;40873;47.522;19.106;2023-01-28T06:25:19;100524.44;;;0.64;100.00
54978;BME280;40873;47.522;19.106;2023-01-28T06:27:46;100529.66;;;0.61;100.00
54978;BME280;40873;47.522;19.106;2023-01-28T06:30:13;100529.81;;;0.53;100.00
54978;BME280;40873;47.522;19.106;2023-01-28T06:32:41;100533.28;;;0.52;100.00
54978;BME280;40873;47.522;19.106;2023-01-28T06:35:08;100540.09;;;0.59;100.00
54978;BME280;40873;47.522;19.106;2023-01-28T06:37:35;100537.44;;;0.62;100.00
54978;BME280;40873;47.522;19.106;2023-01-28T06:40:02;100540.84;;;0.66;100.00
54978;BME280;40873;47.522;19.106;2023-01-28T06:42:30;100542.53;;;0.68;100.00
54978;BME280;40873;47.522;19.106;2023-01-28T06:44:56;100547.94;;;0.56;100.00
54978;BME280;40873;47.522;19.106;2023-01-28T06:47:23;100546.91;;;0.66;100.00
54978;BME280;40873;47.522;19.106;2023-01-28T06:49:50;100555.53;;;0.67;100.00
54978;BME280;40873;47.522;19.106;2023-01-28T06:52:17;100562.47;;;0.66;100.00
54978;BME280;40873;47.522;19.106;2023-01-28T06:54:44;100559.81;;;0.69;100.00
54978;BME280;40873;47.522;19.106;2023-01-28T06:57:11;100566.03;;;0.61;100.00
54978;BME280;40873;47.522;19.106;2023-01-28T06:59:38;100560.94;;;0.56;100.00
54978;BME280;40873;47.522;19.106;2023-01-28T07:02:05;100560.78;;;0.64;100.00
54978;BME280;40873;47.522;19.106;2023-01-28T07:04:32;100576.94;;;0.81;100.00
54978;BME280;40873;47.522;19.106;2023-01-28T07:06:59;100575.28;;;0.75;100.00
54978;BME280;40873;47.522;19.106;2023-01-28T07:09:26;100578.69;;;0.80;100.00
54978;BME280;40873;47.522;19.106;2023-01-28T07:11:53;100582.03;;;0.87;100.00
54978;BME280;40873;47.522;19.106;2023-01-28T07:14:20;100582.13;;;0.81;100.00
54978;BME280;40873;47.522;19.106;2023-01-28T07:16:47;100587.38;;;0.79;100.00
54978;BME280;40873;47.522;19.106;2023-01-28T07:19:14;100590.03;;;0.75;100.00
54978;BME280;40873;47.522;19.106;2023-01-28T07:21:41;100595.16;;;0.79;100.00
54978;BME280;40873;47.522;19.106;2023-01-28T07:24:08;100596.97;;;0.74;100.00
54978;BME280;40873;47.522;19.106;2023-01-28T07:26:35;100593.44;;;0.78;100.00
54978;BME280;40873;47.522;19.106;2023-01-28T07:29:02;100590.16;;;0.67;100.00
54978;BME280;40873;47.522;19.106;2023-01-28T07:31:29;100597.81;;;0.75;100.00
54978;BME280;40873;47.522;19.106;2023-01-28T07:33:56;100597.81;;;0.75;100.00
54978;BME280;40873;47.522;19.106;2023-01-28T07:36:23;100595.50;;;0.58;100.00
54978;BME280;40873;47.522;19.106;2023-01-28T07:38:50;100598.03;;;0.61;100.00
54978;BME280;40873;47.522;19.106;2023-01-28T07:41:17;100591.09;;;0.63;100.00
54978;BME280;40873;47.522;19.106;2023-01-28T07:43:44;100600.63;;;0.63;100.00
54978;BME280;40873;47.522;19.106;2023-01-28T07:46:11;100602.31;;;0.65;100.00
54978;BME280;40873;47.522;19.106;2023-01-28T07:48:38;100601.19;;;0.80;100.00
54978;BME280;40873;47.522;19.106;2023-01-28T07:51:05;100600.13;;;0.93;100.00
54978;BME280;40873;47.522;19.106;2023-01-28T07:53:32;100607.97;;;0.89;100.00
54978;BME280;40873;47.522;19.106;2023-01-28T07:56:00;100606.31;;;0.86;100.00
54978;BME280;40873;47.522;19.106;2023-01-28T07:58:27;100609.69;;;0.91;100.00
54978;BME280;40873;47.522;19.106;2023-01-28T08:00:56;100605.56;;;0.78;100.00
54978;BME280;40873;47.522;19.106;2023-01-28T08:03:24;100619.84;;;1.05;100.00
54978;BME280;40873;47.522;19.106;2023-01-28T08:05:54;100612.84;;;1.08;100.00
54978;BME280;40873;47.522;19.106;2023-01-28T08:08:22;100621.47;;;1.10;100.00
54978;BME280;40873;47.522;19.106;2023-01-28T08:10:50;100613.66;;;1.12;100.00
54978;BME280;40873;47.522;19.106;2023-01-28T08:13:18;100621.38;;;1.15;100.00
54978;BME280;40873;47.522;19.106;2023-01-28T08:15:46;100615.16;;;1.25;100.00
54978;BME280;40873;47.522;19.106;2023-01-28T08:18:14;100615.34;;;1.15;100.00
54978;BME280;40873;47.522;19.106;2023-01-28T08:20:42;100615.50;;;1.05;100.00
54978;BME280;40873;47.522;19.106;2023-01-28T08:23:13;100621.56;;;1.06;100.00
54978;BME280;40873;47.522;19.106;2023-01-28T08:25:41;100615.69;;;0.93;100.00
54978;BME280;40873;47.522;19.106;2023-01-28T08:28:09;100623.44;;;0.96;100.00
54978;BME280;40873;47.522;19.106;2023-01-28T08:30:37;100626.06;;;0.95;100.00
54978;BME280;40873;47.522;19.106;2023-01-28T08:33:09;100630.22;;;1.06;100.00
54978;BME280;40873;47.522;19.106;2023-01-28T08:35:37;100632.81;;;1.06;100.00
54978;BME280;40873;47.522;19.106;2023-01-28T08:38:05;100631.41;;;0.86;100.00
54978;BME280;40873;47.522;19.106;2023-01-28T08:40:33;100635.34;;;1.09;100.00
54978;BME280;40873;47.522;19.106;2023-01-28T08:43:01;100641.47;;;1.07;100.00
54978;BME280;40873;47.522;19.106;2023-01-28T08:45:28;100646.66;;;1.07;100.00
54978;BME280;40873;47.522;19.106;2023-01-28T08:48:03;100642.34;;;1.06;100.00
54978;BME280;40873;47.522;19.106;2023-01-28T08:50:33;100643.84;;;1.18;100.00
54978;BME280;40873;47.522;19.106;2023-01-28T08:53:03;100644.69;;;1.21;100.00
54978;BME280;40873;47.522;19.106;2023-01-28T08:55:32;100647.97;;;1.31;100.00
54978;BME280;40873;47.522;19.106;2023-01-28T08:58:04;100645.34;;;1.32;100.00
54978;BME280;40873;47.522;19.106;2023-01-28T09:00:33;100648.78;;;1.34;100.00
54978;BME280;40873;47.522;19.106;2023-01-28T09:03:00;100646.91;;;1.43;100.00
54978;BME280;40873;47.522;19.106;2023-01-28T09:05:31;100650.25;;;1.49;100.00
54978;BME280;40873;47.522;19.106;2023-01-28T09:08:04;100651.31;;;1.37;100.00
54978;BME280;40873;47.522;19.106;2023-01-28T09:10:32;100654.00;;;1.31;100.00
54978;BME280;40873;47.522;19.106;2023-01-28T09:13:06;100655.75;;;1.32;100.00
54978;BME280;40873;47.522;19.106;2023-01-28T09:15:34;100662.59;;;1.36;100.00
54978;BME280;40873;47.522;19.106;2023-01-28T09:18:02;100661.56;;;1.47;100.00
54978;BME280;40873;47.522;19.106;2023-01-28T09:20:29;100660.50;;;1.57;100.00
54978;BME280;40873;47.522;19.106;2023-01-28T09:22:59;100669.06;;;1.62;100.00
54978;BME280;40873;47.522;19.106;2023-01-28T09:25:26;100670.75;;;1.64;100.00
54978;BME280;40873;47.522;19.106;2023-01-28T09:27:53;100663.66;;;1.74;100.00
54978;BME280;40873;47.522;19.106;2023-01-28T09:30:20;100664.44;;;1.78;100.00
54978;BME280;40873;47.522;19.106;2023-01-28T09:32:51;100664.16;;;1.91;100.00
54978;BME280;40873;47.522;19.106;2023-01-28T09:35:19;100664.91;;;1.98;100.00
54978;BME280;40873;47.522;19.106;2023-01-28T09:37:46;100675.25;;;2.01;100.00
54978;BME280;40873;47.522;19.106;2023-01-28T09:40:20;100671.56;;;2.11;100.00
54978;BME280;40873;47.522;19.106;2023-01-28T09:43:19;100670.47;;;2.23;100.00
54978;BME280;40873;47.522;19.106;2023-01-28T09:45:56;100660.31;;;2.11;100.00
54978;BME280;40873;47.522;19.106;2023-01-28T09:48:29;100656.56;;;2.24;100.00
54978;BME280;40873;47.522;19.106;2023-01-28T09:50:59;100656.44;;;2.30;100.00
54978;BME280;40873;47.522;19.106;2023-01-28T09:53:33;100657.34;;;2.28;100.00
54978;BME280;40873;47.522;19.106;2023-01-28T09:56:03;100659.78;;;2.37;100.00
54978;BME280;40873;47.522;19.106;2023-01-28T09:58:30;100661.47;;;2.38;100.00
54978;BME280;40873;47.522;19.106;2023-01-28T10:01:09;100657.22;;;2.34;100.00
54978;BME280;40873;47.522;19.106;2023-01-28T10:17:58;100654.09;;;2.57;100.00
54978;BME280;40873;47.522;19.106;2023-01-28T10:23:16;100659.03;;;2.69;100.00
54978;BME280;40873;47.522;19.106;2023-01-28T10:25:46;100655.53;;;3.06;100.00
54978;BME280;40873;47.522;19.106;2023-01-28T10:28:20;100654.97;;;2.94;100.00
54978;BME280;40873;47.522;19.106;2023-01-28T10:30:49;100652.69;;;3.16;100.00
54978;BME280;40873;47.522;19.106;2023-01-28T10:35:54;100649.31;;;3.78;100.00
54978;BME280;40873;47.522;19.106;2023-01-28T10:38:23;100650.44;;;3.69;100.00
54978;BME280;40873;47.522;19.106;2023-01-28T10:40:51;100656.53;;;3.68;100.00
54978;BME280;40873;47.522;19.106;2023-01-28T10:43:25;100660.53;;;3.49;100.00
54978;BME280;40873;47.522;19.106;2023-01-28T10:46:06;100659.84;;;3.42;100.00
54978;BME280;40873;47.522;19.106;2023-01-28T10:48:45;100667.56;;;3.45;100.00
54978;BME280;40873;47.522;19.106;2023-01-28T10:51:14;100663.69;;;3.60;100.00
54978;BME280;40873;47.522;19.106;2023-01-28T10:53:44;100653.53;;;3.51;100.00
54978;BME280;40873;47.522;19.106;2023-01-28T10:56:26;100657.09;;;3.48;100.00
54978;BME280;40873;47.522;19.106;2023-01-28T10:59:02;100656.88;;;3.22;100.00
54978;BME280;40873;47.522;19.106;2023-01-28T11:02:17;100657.84;;;3.52;100.00
54978;BME280;40873;47.522;19.106;2023-01-28T11:04:46;100651.06;;;3.45;100.00
54978;BME280;40873;47.522;19.106;2023-01-28T11:07:20;100659.75;;;3.45;100.00
54978;BME280;40873;47.522;19.106;2023-01-28T11:09:49;100663.09;;;3.50;100.00
54978;BME280;40873;47.522;19.106;2023-01-28T11:14:55;100652.91;;;3.74;100.00
54978;BME280;40873;47.522;19.106;2023-01-28T11:17:25;100647.25;;;3.89;98.86
54978;BME280;40873;47.522;19.106;2023-01-28T11:19:54;100643.09;;;3.82;96.63
54978;BME280;40873;47.522;19.106;2023-01-28T11:24:54;100646.16;;;3.98;95.59
54978;BME280;40873;47.522;19.106;2023-01-28T11:27:28;100645.13;;;3.72;95.94
54978;BME280;40873;47.522;19.106;2023-01-28T11:30:00;100639.72;;;3.78;96.66
54978;BME280;40873;47.522;19.106;2023-01-28T11:32:30;100636.81;;;3.58;94.44
54978;BME280;40873;47.522;19.106;2023-01-28T11:34:57;100644.53;;;3.61;94.83
54978;BME280;40873;47.522;19.106;2023-01-28T11:37:27;100636.28;;;3.78;95.23
54978;BME280;40873;47.522;19.106;2023-01-28T11:42:48;100637.28;;;4.03;93.08
54978;BME280;40873;47.522;19.106;2023-01-28T11:45:18;100632.94;;;4.02;95.70
54978;BME280;40873;47.522;19.106;2023-01-28T11:51:06;100626.84;;;4.03;92.55
54978;BME280;40873;47.522;19.106;2023-01-28T11:54:01;100630.09;;;4.10;91.77
54978;BME280;40873;47.522;19.106;2023-01-28T12:08:16;100623.25;;;4.35;88.20
54978;BME280;40873;47.522;19.106;2023-01-28T12:13:28;100619.91;;;4.32;87.88
54978;BME280;40873;47.522;19.106;2023-01-28T12:16:09;100613.84;;;4.30;87.76
54978;BME280;40873;47.522;19.106;2023-01-28T12:19:06;100614.88;;;4.54;86.50
54978;BME280;40873;47.522;19.106;2023-01-28T12:21:52;100617.72;;;4.17;85.90
54978;BME280;40873;47.522;19.106;2023-01-28T12:27:07;100617.84;;;4.42;87.20
54978;BME280;40873;47.522;19.106;2023-01-28T12:38:13;100612.59;;;4.43;84.35
54978;BME280;40873;47.522;19.106;2023-01-28T12:40:44;100617.56;;;4.51;85.12
54978;BME280;40873;47.522;19.106;2023-01-28T12:46:02;100614.94;;;4.52;84.34
54978;BME280;40873;47.522;19.106;2023-01-28T12:48:36;100617.97;;;4.65;83.87
54978;BME280;40873;47.522;19.106;2023-01-28T12:51:24;100619.06;;;4.59;83.61
54978;BME280;40873;47.522;19.106;2023-01-28T12:56:59;100624.59;;;4.49;83.20
54978;BME280;40873;47.522;19.106;2023-01-28T12:59:40;100637.34;;;4.31;83.61
54978;BME280;40873;47.522;19.106;2023-01-28T13:07:34;100641.38;;;4.42;85.09
54978;BME280;40873;47.522;19.106;2023-01-28T13:10:22;100646.53;;;4.43;83.89
54978;BME280;40873;47.522;19.106;2023-01-28T13:12:52;100639.47;;;4.47;85.23
54978;BME280;40873;47.522;19.106;2023-01-28T13:15:19;100639.13;;;4.57;86.33
54978;BME280;40873;47.522;19.106;2023-01-28T13:18:04;100636.88;;;4.47;82.69
54978;BME280;40873;47.522;19.106;2023-01-28T13:20:51;100636.69;;;4.53;83.28
54978;BME280;40873;47.522;19.106;2023-01-28T13:28:47;100642.41;;;4.64;82.96
54978;BME280;40873;47.522;19.106;2023-01-28T13:31:18;100649.59;;;4.57;81.60
54978;BME280;40873;47.522;19.106;2023-01-28T13:34:00;100645.22;;;4.58;81.69
54978;BME280;40873;47.522;19.106;2023-01-28T13:36:30;100654.13;;;4.52;82.47
54978;BME280;40873;47.522;19.106;2023-01-28T13:39:03;100656.31;;;4.36;82.56
54978;BME280;40873;47.522;19.106;2023-01-28T13:42:18;100659.66;;;4.42;82.69
54978;BME280;40873;47.522;19.106;2023-01-28T13:44:46;100662.22;;;4.43;82.91
54978;BME280;40873;47.522;19.106;2023-01-28T13:47:32;100664.59;;;4.51;83.96
54978;BME280;40873;47.522;19.106;2023-01-28T13:50:10;100667.94;;;4.56;84.41
54978;BME280;40873;47.522;19.106;2023-01-28T13:55:30;100667.59;;;4.38;82.86
54978;BME280;40873;47.522;19.106;2023-01-28T14:01:05;100668.34;;;4.42;84.43
54978;BME280;40873;47.522;19.106;2023-01-28T14:06:59;100677.38;;;4.32;82.81
54978;BME280;40873;47.522;19.106;2023-01-28T14:09:30;100675.63;;;4.32;84.08
54978;BME280;40873;47.522;19.106;2023-01-28T14:17:52;100684.06;;;4.11;85.48
54978;BME280;40873;47.522;19.106;2023-01-28T14:20:32;100687.59;;;4.08;84.52
54978;BME280;40873;47.522;19.106;2023-01-28T14:23:05;100682.69;;;3.98;83.53
54978;BME280;40873;47.522;19.106;2023-01-28T14:28:44;100688.78;;;3.98;86.70
54978;BME280;40873;47.522;19.106;2023-01-28T14:31:26;100695.75;;;3.98;87.98
54978;BME280;40873;47.522;19.106;2023-01-28T14:34:01;100698.78;;;3.82;88.84
54978;BME280;40873;47.522;19.106;2023-01-28T14:36:30;100699.59;;;3.84;88.20
54978;BME280;40873;47.522;19.106;2023-01-28T14:38:57;100696.84;;;3.89;87.47
54978;BME280;40873;47.522;19.106;2023-01-28T14:41:26;100700.03;;;4.00;87.47
54978;BME280;40873;47.522;19.106;2023-01-28T14:43:54;100704.06;;;3.79;87.25
54978;BME280;40873;47.522;19.106;2023-01-28T14:49:47;100709.38;;;3.76;88.78
54978;BME280;40873;47.522;19.106;2023-01-28T14:52:54;100706.09;;;3.70;89.79
54978;BME280;40873;47.522;19.106;2023-01-28T14:58:00;100710.59;;;3.63;89.27
54978;BME280;40873;47.522;19.106;2023-01-28T15:00:32;100707.84;;;3.69;89.26
54978;BME280;40873;47.522;19.106;2023-01-28T15:03:07;100708.91;;;3.62;94.30
54978;BME280;40873;47.522;19.106;2023-01-28T15:06:01;100711.09;;;3.43;98.07
54978;BME280;40873;47.522;19.106;2023-01-28T15:08:28;100717.56;;;3.28;100.00
54978;BME280;40873;47.522;19.106;2023-01-28T15:10:59;100717.97;;;3.12;100.00
54978;BME280;40873;47.522;19.106;2023-01-28T15:13:29;100727.50;;;3.13;100.00
54978;BME280;40873;47.522;19.106;2023-01-28T15:15:58;100719.84;;;3.07;100.00